sensor_id;sensor_type;location;lat;lon;timestamp;pressure;altitude;pressure_sealevel;temperature;humidity
76352;BME280;65179;47.786;19.138;2022-12-11T00:01:10;98325.72;;;4.39;96.04
76352;BME280;65179;47.786;19.138;2022-12-11T00:03:36;98324.87;;;4.38;96.02
76352;BME280;65179;47.786;19.138;2022-12-11T00:06:07;98320.78;;;4.36;96.04
76352;BME280;65179;47.786;19.138;2022-12-11T00:08:33;98322.66;;;4.35;95.99
76352;BME280;65179;47.786;19.138;2022-12-11T00:10:58;98326.41;;;4.34;96.01
76352;BME280;65179;47.786;19.138;2022-12-11T00:13:24;98321.47;;;4.31;96.02
76352;BME280;65179;47.786;19.138;2022-12-11T00:15:49;98309.69;;;4.32;95.94
76352;BME280;65179;47.786;19.138;2022-12-11T00:18:15;98302.91;;;4.30;95.98
76352;BME280;65179;47.786;19.138;2022-12-11T00:20:40;98301.25;;;4.29;95.93
76352;BME280;65179;47.786;19.138;2022-12-11T00:23:06;98306.63;;;4.29;95.91
76352;BME280;65179;47.786;19.138;2022-12-11T00:25:31;98304.19;;;4.27;95.85
76352;BME280;65179;47.786;19.138;2022-12-11T00:27:56;98286.22;;;4.28;95.82
76352;BME280;65179;47.786;19.138;2022-12-11T00:30:22;98280.00;;;4.27;95.80
76352;BME280;65179;47.786;19.138;2022-12-11T00:32:50;98288.53;;;4.24;95.79
76352;BME280;65179;47.786;19.138;2022-12-11T00:35:16;98282.09;;;4.25;95.74
76352;BME280;65179;47.786;19.138;2022-12-11T00:37:41;98283.63;;;4.21;95.70
76352;BME280;65179;47.786;19.138;2022-12-11T00:40:07;98286.31;;;4.21;95.66
76352;BME280;65179;47.786;19.138;2022-12-11T00:42:32;98281.97;;;4.20;95.65
76352;BME280;65179;47.786;19.138;2022-12-11T00:44:58;98276.84;;;4.19;95.68
76352;BME280;65179;47.786;19.138;2022-12-11T00:47:23;98281.03;;;4.15;95.57
76352;BME280;65179;47.786;19.138;2022-12-11T00:49:49;98286.16;;;4.16;95.61
76352;BME280;65179;47.786;19.138;2022-12-11T00:52:14;98286.41;;;4.15;95.54
76352;BME280;65179;47.786;19.138;2022-12-11T00:54:41;98277.31;;;4.16;95.58
76352;BME280;65179;47.786;19.138;2022-12-11T00:57:07;98267.03;;;4.13;95.55
76352;BME280;65179;47.786;19.138;2022-12-11T00:59:32;98268.88;;;4.12;95.50
76352;BME280;65179;47.786;19.138;2022-12-11T01:01:58;98279.03;;;4.10;95.43
76352;BME280;65179;47.786;19.138;2022-12-11T01:04:23;98278.59;;;4.13;95.48
76352;BME280;65179;47.786;19.138;2022-12-11T01:06:49;98269.38;;;4.09;95.36
76352;BME280;65179;47.786;19.138;2022-12-11T01:09:14;98277.41;;;4.09;95.40
76352;BME280;65179;47.786;19.138;2022-12-11T01:11:58;98277.63;;;4.08;95.37
76352;BME280;65179;47.786;19.138;2022-12-11T01:14:25;98274.34;;;4.06;95.29
76352;BME280;65179;47.786;19.138;2022-12-11T01:16:50;98266.78;;;4.03;95.14
76352;BME280;65179;47.786;19.138;2022-12-11T01:19:16;98274.22;;;4.01;94.98
76352;BME280;65179;47.786;19.138;2022-12-11T01:21:41;98276.31;;;3.99;94.97
76352;BME280;65179;47.786;19.138;2022-12-11T01:24:07;98263.13;;;3.97;95.04
76352;BME280;65179;47.786;19.138;2022-12-11T01:26:32;98259.84;;;3.95;95.03
76352;BME280;65179;47.786;19.138;2022-12-11T01:28:57;98259.03;;;3.95;94.87
76352;BME280;65179;47.786;19.138;2022-12-11T01:31:23;98273.72;;;3.92;94.83
76352;BME280;65179;47.786;19.138;2022-12-11T01:33:48;98279.56;;;3.89;94.68
76352;BME280;65179;47.786;19.138;2022-12-11T01:36:17;98285.97;;;3.88;94.59
76352;BME280;65179;47.786;19.138;2022-12-11T01:38:44;98277.13;;;3.88;94.62
76352;BME280;65179;47.786;19.138;2022-12-11T01:41:10;98279.19;;;3.85;94.59
76352;BME280;65179;47.786;19.138;2022-12-11T01:43:56;98277.81;;;3.83;94.42
76352;BME280;65179;47.786;19.138;2022-12-11T01:46:22;98281.53;;;3.82;94.40
76352;BME280;65179;47.786;19.138;2022-12-11T01:48:47;98279.28;;;3.79;94.49
76352;BME280;65179;47.786;19.138;2022-12-11T01:51:13;98278.25;;;3.80;94.51
76352;BME280;65179;47.786;19.138;2022-12-11T01:53:54;98286.31;;;3.80;94.38
76352;BME280;65179;47.786;19.138;2022-12-11T01:56:22;98284.31;;;3.75;94.19
76352;BME280;65179;47.786;19.138;2022-12-11T01:58:53;98276.50;;;3.74;94.22
76352;BME280;65179;47.786;19.138;2022-12-11T02:01:39;98267.84;;;3.72;94.22
76352;BME280;65179;47.786;19.138;2022-12-11T02:04:07;98268.28;;;3.69;93.93
76352;BME280;65179;47.786;19.138;2022-12-11T02:09:02;98274.34;;;3.64;94.18
76352;BME280;65179;47.786;19.138;2022-12-11T02:12:23;98286.56;;;3.60;93.64
76352;BME280;65179;47.786;19.138;2022-12-11T02:14:25;98279.78;;;3.58;93.89
76352;BME280;65179;47.786;19.138;2022-12-11T02:17:03;98292.03;;;3.54;94.15
76352;BME280;65179;47.786;19.138;2022-12-11T02:22:27;98284.28;;;3.46;93.90
76352;BME280;65179;47.786;19.138;2022-12-11T02:27:41;98293.84;;;3.42;94.06
76352;BME280;65179;47.786;19.138;2022-12-11T02:30:12;98280.63;;;3.40;94.01
76352;BME280;65179;47.786;19.138;2022-12-11T02:32:44;98284.81;;;3.36;93.74
76352;BME280;65179;47.786;19.138;2022-12-11T02:35:21;98284.69;;;3.31;93.47
76352;BME280;65179;47.786;19.138;2022-12-11T02:38:04;98294.91;;;3.23;93.53
76352;BME280;65179;47.786;19.138;2022-12-11T02:40:34;98298.25;;;3.18;93.25
76352;BME280;65179;47.786;19.138;2022-12-11T02:43:03;98293.34;;;3.15;93.48
76352;BME280;65179;47.786;19.138;2022-12-11T02:45:31;98282.25;;;3.12;93.20
76352;BME280;65179;47.786;19.138;2022-12-11T02:48:00;98282.69;;;3.08;93.28
76352;BME280;65179;47.786;19.138;2022-12-11T02:50:28;98284.41;;;3.03;93.23
76352;BME280;65179;47.786;19.138;2022-12-11T02:52:55;98284.00;;;2.99;93.31
76352;BME280;65179;47.786;19.138;2022-12-11T02:55:23;98280.31;;;3.00;93.36
76352;BME280;65179;47.786;19.138;2022-12-11T02:57:57;98275.38;;;2.97;93.18
76352;BME280;65179;47.786;19.138;2022-12-11T03:00:24;98269.84;;;2.92;93.23
76352;BME280;65179;47.786;19.138;2022-12-11T03:02:49;98277.91;;;2.92;93.20
76352;BME280;65179;47.786;19.138;2022-12-11T03:05:15;98275.91;;;2.88;93.12
76352;BME280;65179;47.786;19.138;2022-12-11T03:07:42;98279.19;;;2.90;93.26
76352;BME280;65179;47.786;19.138;2022-12-11T03:10:12;98277.16;;;2.85;93.05
76352;BME280;65179;47.786;19.138;2022-12-11T03:12:41;98277.00;;;2.80;92.86
76352;BME280;65179;47.786;19.138;2022-12-11T03:15:11;98275.97;;;2.81;92.85
76352;BME280;65179;47.786;19.138;2022-12-11T03:17:58;98272.69;;;2.79;92.88
76352;BME280;65179;47.786;19.138;2022-12-11T03:20:36;98267.41;;;2.73;92.53
76352;BME280;65179;47.786;19.138;2022-12-11T03:25:41;98265.41;;;2.68;92.70
76352;BME280;65179;47.786;19.138;2022-12-11T03:28:15;98263.31;;;2.70;92.88
76352;BME280;65179;47.786;19.138;2022-12-11T03:30:44;98253.91;;;2.61;92.47
76352;BME280;65179;47.786;19.138;2022-12-11T03:33:14;98258.22;;;2.62;92.79
76352;BME280;65179;47.786;19.138;2022-12-11T03:35:47;98269.63;;;2.58;92.72
76352;BME280;65179;47.786;19.138;2022-12-11T03:38:20;98260.34;;;2.54;92.68
76352;BME280;65179;47.786;19.138;2022-12-11T03:40:50;98263.50;;;2.51;92.71
76352;BME280;65179;47.786;19.138;2022-12-11T03:43:19;98262.84;;;2.55;92.86
76352;BME280;65179;47.786;19.138;2022-12-11T03:45:47;98252.38;;;2.47;92.51
76352;BME280;65179;47.786;19.138;2022-12-11T03:48:15;98257.75;;;2.47;92.60
76352;BME280;65179;47.786;19.138;2022-12-11T03:50:42;98256.50;;;2.50;92.78
76352;BME280;65179;47.786;19.138;2022-12-11T03:53:10;98253.22;;;2.48;92.61
76352;BME280;65179;47.786;19.138;2022-12-11T03:55:36;98250.59;;;2.41;92.56
76352;BME280;65179;47.786;19.138;2022-12-11T03:58:02;98260.12;;;2.37;92.42
76352;BME280;65179;47.786;19.138;2022-12-11T04:00:29;98257.44;;;2.37;92.53
76352;BME280;65179;47.786;19.138;2022-12-11T04:02:55;98258.19;;;2.44;92.68
76352;BME280;65179;47.786;19.138;2022-12-11T04:05:40;98267.72;;;2.40;92.69
76352;BME280;65179;47.786;19.138;2022-12-11T04:08:06;98263.81;;;2.36;92.45
76352;BME280;65179;47.786;19.138;2022-12-11T04:10:32;98267.97;;;2.32;92.52
76352;BME280;65179;47.786;19.138;2022-12-11T04:12:57;98270.06;;;2.30;92.46
76352;BME280;65179;47.786;19.138;2022-12-11T04:15:22;98264.09;;;2.28;92.44
76352;BME280;65179;47.786;19.138;2022-12-11T04:17:48;98268.63;;;2.27;92.22
76352;BME280;65179;47.786;19.138;2022-12-11T04:20:32;98264.34;;;2.26;92.39
76352;BME280;65179;47.786;19.138;2022-12-11T04:23:17;98267.78;;;2.34;92.50
76352;BME280;65179;47.786;19.138;2022-12-11T04:26:10;98275.41;;;2.30;92.32
76352;BME280;65179;47.786;19.138;2022-12-11T04:28:37;98278.09;;;2.30;92.29
76352;BME280;65179;47.786;19.138;2022-12-11T04:31:03;98283.84;;;2.34;92.47
76352;BME280;65179;47.786;19.138;2022-12-11T04:33:28;98284.66;;;2.34;92.40
76352;BME280;65179;47.786;19.138;2022-12-11T04:35:57;98295.97;;;2.36;92.29
76352;BME280;65179;47.786;19.138;2022-12-11T04:38:22;98288.44;;;2.26;92.04
76352;BME280;65179;47.786;19.138;2022-12-11T04:40:47;98291.75;;;2.22;92.25
76352;BME280;65179;47.786;19.138;2022-12-11T04:43:13;98296.50;;;2.20;92.38
76352;BME280;65179;47.786;19.138;2022-12-11T04:45:38;98298.38;;;2.19;92.44
76352;BME280;65179;47.786;19.138;2022-12-11T04:48:04;98314.22;;;2.21;92.31
76352;BME280;65179;47.786;19.138;2022-12-11T04:50:29;98309.53;;;2.16;92.26
76352;BME280;65179;47.786;19.138;2022-12-11T04:52:55;98323.13;;;2.15;92.05
76352;BME280;65179;47.786;19.138;2022-12-11T04:55:21;98323.16;;;2.08;92.29
76352;BME280;65179;47.786;19.138;2022-12-11T04:57:47;98318.63;;;2.09;92.34
76352;BME280;65179;47.786;19.138;2022-12-11T05:00:13;98314.94;;;2.10;92.23
76352;BME280;65179;47.786;19.138;2022-12-11T05:02:40;98319.03;;;2.06;92.21
76352;BME280;65179;47.786;19.138;2022-12-11T05:05:07;98328.97;;;2.05;92.18
76352;BME280;65179;47.786;19.138;2022-12-11T05:07:37;98343.97;;;2.06;92.17
76352;BME280;65179;47.786;19.138;2022-12-11T05:10:04;98341.75;;;2.03;92.26
76352;BME280;65179;47.786;19.138;2022-12-11T05:12:30;98341.56;;;1.98;92.34
76352;BME280;65179;47.786;19.138;2022-12-11T05:14:56;98349.16;;;2.01;92.31
76352;BME280;65179;47.786;19.138;2022-12-11T05:17:21;98358.88;;;1.96;92.20
76352;BME280;65179;47.786;19.138;2022-12-11T05:19:49;98358.88;;;1.96;92.32
76352;BME280;65179;47.786;19.138;2022-12-11T05:22:16;98366.06;;;1.95;92.39
76352;BME280;65179;47.786;19.138;2022-12-11T05:24:42;98373.09;;;1.90;92.23
76352;BME280;65179;47.786;19.138;2022-12-11T05:27:07;98367.94;;;1.95;92.37
76352;BME280;65179;47.786;19.138;2022-12-11T05:29:34;98370.63;;;1.95;92.27
76352;BME280;65179;47.786;19.138;2022-12-11T05:31:59;98369.78;;;1.94;92.46
76352;BME280;65179;47.786;19.138;2022-12-11T05:34:25;98372.66;;;1.93;92.30
76352;BME280;65179;47.786;19.138;2022-12-11T05:36:50;98378.00;;;1.93;92.32
76352;BME280;65179;47.786;19.138;2022-12-11T05:39:15;98371.63;;;1.94;92.47
76352;BME280;65179;47.786;19.138;2022-12-11T05:41:41;98372.66;;;1.93;92.49
76352;BME280;65179;47.786;19.138;2022-12-11T05:44:08;98370.22;;;1.91;92.34
76352;BME280;65179;47.786;19.138;2022-12-11T05:46:33;98371.88;;;1.92;92.40
76352;BME280;65179;47.786;19.138;2022-12-11T05:49:00;98362.41;;;1.90;92.49
76352;BME280;65179;47.786;19.138;2022-12-11T05:51:27;98365.31;;;1.88;92.50
76352;BME280;65179;47.786;19.138;2022-12-11T05:53:54;98361.97;;;1.93;92.48
76352;BME280;65179;47.786;19.138;2022-12-11T05:56:28;98360.75;;;1.89;92.21
76352;BME280;65179;47.786;19.138;2022-12-11T05:58:55;98370.00;;;1.93;92.56
76352;BME280;65179;47.786;19.138;2022-12-11T06:01:24;98376.38;;;1.92;92.41
76352;BME280;65179;47.786;19.138;2022-12-11T06:03:52;98375.19;;;1.88;92.05
76352;BME280;65179;47.786;19.138;2022-12-11T06:06:18;98372.50;;;1.88;92.19
76352;BME280;65179;47.786;19.138;2022-12-11T06:08:43;98382.38;;;1.87;92.52
76352;BME280;65179;47.786;19.138;2022-12-11T06:11:11;98383.22;;;1.88;92.29
76352;BME280;65179;47.786;19.138;2022-12-11T06:13:37;98394.94;;;1.87;92.15
76352;BME280;65179;47.786;19.138;2022-12-11T06:16:04;98390.81;;;1.84;92.41
76352;BME280;65179;47.786;19.138;2022-12-11T06:18:30;98387.97;;;1.86;92.31
76352;BME280;65179;47.786;19.138;2022-12-11T06:20:56;98402.34;;;1.85;92.41
76352;BME280;65179;47.786;19.138;2022-12-11T06:23:22;98398.25;;;1.82;92.21
76352;BME280;65179;47.786;19.138;2022-12-11T06:25:47;98406.09;;;1.84;92.15
76352;BME280;65179;47.786;19.138;2022-12-11T06:28:13;98420.47;;;1.83;92.29
76352;BME280;65179;47.786;19.138;2022-12-11T06:30:39;98423.75;;;1.85;92.23
76352;BME280;65179;47.786;19.138;2022-12-11T06:33:04;98422.75;;;1.86;92.23
76352;BME280;65179;47.786;19.138;2022-12-11T06:35:29;98428.09;;;1.86;91.85
76352;BME280;65179;47.786;19.138;2022-12-11T06:37:55;98425.84;;;1.83;91.68
76352;BME280;65179;47.786;19.138;2022-12-11T06:40:20;98431.19;;;1.83;91.72
76352;BME280;65179;47.786;19.138;2022-12-11T06:42:46;98430.16;;;1.84;91.90
76352;BME280;65179;47.786;19.138;2022-12-11T06:45:11;98432.84;;;1.84;91.73
76352;BME280;65179;47.786;19.138;2022-12-11T06:47:37;98441.06;;;1.82;91.82
76352;BME280;65179;47.786;19.138;2022-12-11T06:50:02;98450.75;;;1.83;91.24
76352;BME280;65179;47.786;19.138;2022-12-11T06:52:28;98450.53;;;1.85;91.73
76352;BME280;65179;47.786;19.138;2022-12-11T06:54:54;98452.19;;;1.86;91.40
76352;BME280;65179;47.786;19.138;2022-12-11T06:57:20;98448.47;;;1.80;91.65
76352;BME280;65179;47.786;19.138;2022-12-11T06:59:45;98458.38;;;1.80;91.63
76352;BME280;65179;47.786;19.138;2022-12-11T07:02:12;98459.81;;;1.76;91.62
76352;BME280;65179;47.786;19.138;2022-12-11T07:04:39;98475.88;;;1.76;91.75
76352;BME280;65179;47.786;19.138;2022-12-11T07:07:04;98478.97;;;1.79;91.93
76352;BME280;65179;47.786;19.138;2022-12-11T07:09:30;98475.69;;;1.77;92.13
76352;BME280;65179;47.786;19.138;2022-12-11T07:11:55;98484.09;;;1.81;91.92
76352;BME280;65179;47.786;19.138;2022-12-11T07:14:21;98474.44;;;1.80;92.08
76352;BME280;65179;47.786;19.138;2022-12-11T07:16:46;98478.75;;;1.81;91.84
76352;BME280;65179;47.786;19.138;2022-12-11T07:19:11;98478.75;;;1.81;92.04
76352;BME280;65179;47.786;19.138;2022-12-11T07:21:37;98491.72;;;1.84;91.84
76352;BME280;65179;47.786;19.138;2022-12-11T07:24:02;98489.66;;;1.86;92.13
76352;BME280;65179;47.786;19.138;2022-12-11T07:26:28;98483.84;;;1.89;91.85
76352;BME280;65179;47.786;19.138;2022-12-11T07:28:57;98489.44;;;1.87;91.57
76352;BME280;65179;47.786;19.138;2022-12-11T07:31:24;98484.47;;;1.91;91.74
76352;BME280;65179;47.786;19.138;2022-12-11T07:33:57;98486.53;;;1.89;91.55
76352;BME280;65179;47.786;19.138;2022-12-11T07:36:23;98485.06;;;1.93;91.50
76352;BME280;65179;47.786;19.138;2022-12-11T07:38:49;98493.53;;;1.96;91.62
76352;BME280;65179;47.786;19.138;2022-12-11T07:41:15;98494.97;;;1.99;91.49
76352;BME280;65179;47.786;19.138;2022-12-11T07:43:41;98504.84;;;1.98;91.39
76352;BME280;65179;47.786;19.138;2022-12-11T07:46:10;98500.09;;;2.00;91.10
76352;BME280;65179;47.786;19.138;2022-12-11T07:48:37;98514.31;;;2.01;90.77
76352;BME280;65179;47.786;19.138;2022-12-11T07:51:16;98518.00;;;2.00;90.61
76352;BME280;65179;47.786;19.138;2022-12-11T07:53:46;98525.62;;;2.03;90.81
76352;BME280;65179;47.786;19.138;2022-12-11T07:56:13;98526.22;;;2.05;90.45
76352;BME280;65179;47.786;19.138;2022-12-11T07:58:38;98538.56;;;2.06;90.28
76352;BME280;65179;47.786;19.138;2022-12-11T08:01:09;98522.50;;;2.06;90.33
76352;BME280;65179;47.786;19.138;2022-12-11T08:03:34;98533.03;;;2.07;90.15
76352;BME280;65179;47.786;19.138;2022-12-11T08:06:00;98531.97;;;2.08;89.93
76352;BME280;65179;47.786;19.138;2022-12-11T08:08:25;98538.37;;;2.07;90.00
76352;BME280;65179;47.786;19.138;2022-12-11T08:10:50;98530.72;;;2.11;89.97
76352;BME280;65179;47.786;19.138;2022-12-11T08:13:16;98527.66;;;2.07;89.40
76352;BME280;65179;47.786;19.138;2022-12-11T08:15:41;98532.59;;;2.10;89.78
76352;BME280;65179;47.786;19.138;2022-12-11T08:18:07;98545.16;;;2.10;89.14
76352;BME280;65179;47.786;19.138;2022-12-11T08:20:32;98548.88;;;2.09;89.05
76352;BME280;65179;47.786;19.138;2022-12-11T08:22:57;98557.28;;;2.12;89.11
76352;BME280;65179;47.786;19.138;2022-12-11T08:25:23;98562.47;;;2.14;88.82
76352;BME280;65179;47.786;19.138;2022-12-11T08:27:48;98565.53;;;2.11;88.90
76352;BME280;65179;47.786;19.138;2022-12-11T08:30:14;98569.44;;;2.15;88.55
76352;BME280;65179;47.786;19.138;2022-12-11T08:32:40;98563.06;;;2.16;87.94
76352;BME280;65179;47.786;19.138;2022-12-11T08:35:05;98578.06;;;2.17;87.82
76352;BME280;65179;47.786;19.138;2022-12-11T08:37:33;98584.47;;;2.16;87.75
76352;BME280;65179;47.786;19.138;2022-12-11T08:39:58;98594.16;;;2.17;87.42
76352;BME280;65179;47.786;19.138;2022-12-11T08:42:24;98596.63;;;2.18;87.53
76352;BME280;65179;47.786;19.138;2022-12-11T08:44:49;98607.34;;;2.18;87.42
76352;BME280;65179;47.786;19.138;2022-12-11T08:47:16;98612.69;;;2.18;87.43
76352;BME280;65179;47.786;19.138;2022-12-11T08:49:41;98610.62;;;2.20;86.96
76352;BME280;65179;47.786;19.138;2022-12-11T08:52:06;98617.44;;;2.23;87.52
76352;BME280;65179;47.786;19.138;2022-12-11T08:54:32;98613.91;;;2.22;86.98
76352;BME280;65179;47.786;19.138;2022-12-11T08:56:57;98604.84;;;2.23;87.15
76352;BME280;65179;47.786;19.138;2022-12-11T08:59:23;98601.38;;;2.23;87.37
76352;BME280;65179;47.786;19.138;2022-12-11T09:01:50;98611.63;;;2.26;86.57
76352;BME280;65179;47.786;19.138;2022-12-11T09:04:15;98620.09;;;2.29;86.63
76352;BME280;65179;47.786;19.138;2022-12-11T09:06:40;98634.28;;;2.30;86.44
76352;BME280;65179;47.786;19.138;2022-12-11T09:09:06;98622.56;;;2.31;86.36
76352;BME280;65179;47.786;19.138;2022-12-11T09:11:34;98625.44;;;2.29;86.02
76352;BME280;65179;47.786;19.138;2022-12-11T09:14:00;98629.13;;;2.35;86.65
76352;BME280;65179;47.786;19.138;2022-12-11T09:16:27;98629.13;;;2.35;85.99
76352;BME280;65179;47.786;19.138;2022-12-11T09:18:55;98630.75;;;2.36;85.77
76352;BME280;65179;47.786;19.138;2022-12-11T09:21:23;98638.16;;;2.41;86.28
76352;BME280;65179;47.786;19.138;2022-12-11T09:23:52;98634.47;;;2.42;85.78
76352;BME280;65179;47.786;19.138;2022-12-11T09:26:17;98634.84;;;2.45;85.85
76352;BME280;65179;47.786;19.138;2022-12-11T09:28:44;98637.75;;;2.44;85.49
76352;BME280;65179;47.786;19.138;2022-12-11T09:31:12;98639.59;;;2.43;85.97
76352;BME280;65179;47.786;19.138;2022-12-11T09:33:38;98642.28;;;2.43;85.50
76352;BME280;65179;47.786;19.138;2022-12-11T09:36:04;98649.72;;;2.41;84.96
76352;BME280;65179;47.786;19.138;2022-12-11T09:38:30;98654.66;;;2.44;85.13
76352;BME280;65179;47.786;19.138;2022-12-11T09:40:56;98657.34;;;2.44;84.67
76352;BME280;65179;47.786;19.138;2022-12-11T09:43:41;98657.94;;;2.46;84.82
76352;BME280;65179;47.786;19.138;2022-12-11T09:46:13;98655.03;;;2.48;84.91
76352;BME280;65179;47.786;19.138;2022-12-11T09:48:41;98655.66;;;2.50;84.50
76352;BME280;65179;47.786;19.138;2022-12-11T09:51:24;98666.97;;;2.52;84.72
76352;BME280;65179;47.786;19.138;2022-12-11T09:53:51;98666.97;;;2.52;84.10
76352;BME280;65179;47.786;19.138;2022-12-11T09:56:48;98661.84;;;2.50;84.58
76352;BME280;65179;47.786;19.138;2022-12-11T09:59:29;98658.75;;;2.53;84.87
76352;BME280;65179;47.786;19.138;2022-12-11T10:02:58;98651.75;;;2.46;84.13
76352;BME280;65179;47.786;19.138;2022-12-11T10:10:49;98655.25;;;2.53;84.13
76352;BME280;65179;47.786;19.138;2022-12-11T10:18:28;98641.84;;;2.59;84.31
76352;BME280;65179;47.786;19.138;2022-12-11T10:20:54;98644.06;;;2.62;84.25
76352;BME280;65179;47.786;19.138;2022-12-11T10:23:27;98644.06;;;2.62;84.42
76352;BME280;65179;47.786;19.138;2022-12-11T10:28:32;98639.31;;;2.64;83.98
76352;BME280;65179;47.786;19.138;2022-12-11T10:34:07;98629.44;;;2.65;82.76
76352;BME280;65179;47.786;19.138;2022-12-11T10:36:38;98648.41;;;2.63;82.97
76352;BME280;65179;47.786;19.138;2022-12-11T10:39:19;98648.41;;;2.63;82.05
76352;BME280;65179;47.786;19.138;2022-12-11T10:41:47;98660.97;;;2.63;82.58
76352;BME280;65179;47.786;19.138;2022-12-11T10:44:24;98653.75;;;2.63;82.17
76352;BME280;65179;47.786;19.138;2022-12-11T10:49:31;98656.03;;;2.66;82.36
76352;BME280;65179;47.786;19.138;2022-12-11T10:51:57;98662.03;;;2.62;82.10
76352;BME280;65179;47.786;19.138;2022-12-11T10:57:02;98668.84;;;2.58;82.18
76352;BME280;65179;47.786;19.138;2022-12-11T10:59:48;98658.72;;;2.60;82.13
76352;BME280;65179;47.786;19.138;2022-12-11T11:02:22;98672.31;;;2.58;82.16
76352;BME280;65179;47.786;19.138;2022-12-11T11:04:49;98674.19;;;2.58;82.04
76352;BME280;65179;47.786;19.138;2022-12-11T11:07:22;98669.66;;;2.58;82.34
76352;BME280;65179;47.786;19.138;2022-12-11T11:09:50;98665.53;;;2.56;82.07
76352;BME280;65179;47.786;19.138;2022-12-11T11:14:42;98687.81;;;2.50;81.55
76352;BME280;65179;47.786;19.138;2022-12-11T11:17:15;98674.03;;;2.46;81.51
76352;BME280;65179;47.786;19.138;2022-12-11T11:19:45;98687.41;;;2.46;80.97
76352;BME280;65179;47.786;19.138;2022-12-11T11:22:16;98675.87;;;2.46;80.84
76352;BME280;65179;47.786;19.138;2022-12-11T11:24:53;98675.03;;;2.45;81.84
76352;BME280;65179;47.786;19.138;2022-12-11T11:27:43;98688.84;;;2.49;81.85
76352;BME280;65179;47.786;19.138;2022-12-11T11:30:21;98683.28;;;2.50;81.24
76352;BME280;65179;47.786;19.138;2022-12-11T11:32:49;98680.00;;;2.48;80.40
76352;BME280;65179;47.786;19.138;2022-12-11T11:35:18;98682.66;;;2.48;80.07
76352;BME280;65179;47.786;19.138;2022-12-11T11:37:52;98680.00;;;2.48;80.69
76352;BME280;65179;47.786;19.138;2022-12-11T11:40:26;98680.41;;;2.45;80.28
76352;BME280;65179;47.786;19.138;2022-12-11T11:51:28;98706.37;;;2.45;80.25
76352;BME280;65179;47.786;19.138;2022-12-11T11:53:57;98714.81;;;2.48;80.79
76352;BME280;65179;47.786;19.138;2022-12-11T11:56:32;98720.56;;;2.52;80.85
76352;BME280;65179;47.786;19.138;2022-12-11T12:01:35;98731.50;;;2.57;80.08
76352;BME280;65179;47.786;19.138;2022-12-11T12:04:03;98725.91;;;2.58;79.90
76352;BME280;65179;47.786;19.138;2022-12-11T12:12:20;98733.16;;;2.58;79.82
76352;BME280;65179;47.786;19.138;2022-12-11T12:23:13;98737.47;;;2.52;78.84
76352;BME280;65179;47.786;19.138;2022-12-11T12:28:50;98743.22;;;2.56;79.64
76352;BME280;65179;47.786;19.138;2022-12-11T12:42:41;98759.31;;;2.49;78.85
76352;BME280;65179;47.786;19.138;2022-12-11T12:47:41;98749.66;;;2.48;79.11
76352;BME280;65179;47.786;19.138;2022-12-11T12:50:16;98749.44;;;2.50;79.06
76352;BME280;65179;47.786;19.138;2022-12-11T12:52:43;98746.97;;;2.48;78.67
76352;BME280;65179;47.786;19.138;2022-12-11T12:57:47;98747.56;;;2.50;79.27
76352;BME280;65179;47.786;19.138;2022-12-11T13:02:50;98745.91;;;2.49;79.24
76352;BME280;65179;47.786;19.138;2022-12-11T13:05:27;98755.84;;;2.49;79.16
76352;BME280;65179;47.786;19.138;2022-12-11T13:07:56;98746.97;;;2.48;78.77
76352;BME280;65179;47.786;19.138;2022-12-11T13:12:54;98760.97;;;2.50;78.81
76352;BME280;65179;47.786;19.138;2022-12-11T13:15:36;98771.69;;;2.50;78.84
76352;BME280;65179;47.786;19.138;2022-12-11T13:18:29;98788.78;;;2.49;78.70
76352;BME280;65179;47.786;19.138;2022-12-11T13:20:55;98784.06;;;2.51;79.11
76352;BME280;65179;47.786;19.138;2022-12-11T13:23:32;98788.78;;;2.49;79.30
76352;BME280;65179;47.786;19.138;2022-12-11T13:26:00;98797.66;;;2.50;79.11
76352;BME280;65179;47.786;19.138;2022-12-11T13:33:47;98809.41;;;2.49;78.61
76352;BME280;65179;47.786;19.138;2022-12-11T13:38:43;98817.25;;;2.50;78.83
76352;BME280;65179;47.786;19.138;2022-12-11T13:41:11;98826.28;;;2.49;78.56
76352;BME280;65179;47.786;19.138;2022-12-11T13:43:40;98821.75;;;2.50;78.80
76352;BME280;65179;47.786;19.138;2022-12-11T13:46:11;98819.09;;;2.50;78.49
76352;BME280;65179;47.786;19.138;2022-12-11T13:48:46;98826.28;;;2.49;78.14
76352;BME280;65179;47.786;19.138;2022-12-11T13:51:16;98823.59;;;2.49;78.22
76352;BME280;65179;47.786;19.138;2022-12-11T13:53:42;98830.62;;;2.50;78.25
76352;BME280;65179;47.786;19.138;2022-12-11T13:56:19;98834.31;;;2.49;78.55
76352;BME280;65179;47.786;19.138;2022-12-11T13:58:46;98831.66;;;2.49;78.67
76352;BME280;65179;47.786;19.138;2022-12-11T14:03:39;98838.06;;;2.48;78.47
76352;BME280;65179;47.786;19.138;2022-12-11T14:06:08;98838.06;;;2.48;78.54
76352;BME280;65179;47.786;19.138;2022-12-11T14:08:35;98844.25;;;2.49;78.81
76352;BME280;65179;47.786;19.138;2022-12-11T14:11:02;98841.75;;;2.47;78.97
76352;BME280;65179;47.786;19.138;2022-12-11T14:13:39;98851.84;;;2.45;77.92
76352;BME280;65179;47.786;19.138;2022-12-11T14:16:06;98855.56;;;2.44;77.79
76352;BME280;65179;47.786;19.138;2022-12-11T14:18:34;98858.88;;;2.40;78.17
76352;BME280;65179;47.786;19.138;2022-12-11T14:21:03;98858.88;;;2.40;78.37
76352;BME280;65179;47.786;19.138;2022-12-11T14:23:34;98860.09;;;2.37;77.65
76352;BME280;65179;47.786;19.138;2022-12-11T14:26:16;98871.03;;;2.36;78.09
76352;BME280;65179;47.786;19.138;2022-12-11T14:28:42;98868.34;;;2.36;78.00
76352;BME280;65179;47.786;19.138;2022-12-11T14:31:08;98877.59;;;2.33;77.49
76352;BME280;65179;47.786;19.138;2022-12-11T14:33:46;98881.31;;;2.32;77.55
76352;BME280;65179;47.786;19.138;2022-12-11T14:36:13;98893.28;;;2.29;78.23
76352;BME280;65179;47.786;19.138;2022-12-11T14:38:44;98897.19;;;2.27;77.81
76352;BME280;65179;47.786;19.138;2022-12-11T14:41:16;98904.16;;;2.28;78.41
76352;BME280;65179;47.786;19.138;2022-12-11T14:43:47;98913.66;;;2.24;77.74